Map

Track Data

SID SEASON NUMBER BASIN SUBBASIN NAME ISO_TIME NATURE LAT LON WMO_WIND WMO_PRES WMO_AGENCY TRACK_TYPE DIST2LAND LANDFALL IFLAG USA_AGENCY USA_ATCF_ID USA_LAT USA_LON USA_RECORD USA_STATUS USA_WIND USA_PRES USA_SSHS USA_R34_NE USA_R34_SE USA_R34_SW USA_R34_NW USA_R50_NE USA_R50_SE USA_R50_SW USA_R50_NW USA_R64_NE USA_R64_SE USA_R64_SW USA_R64_NW USA_POCI USA_ROCI USA_RMW USA_EYE TOKYO_LAT TOKYO_LON TOKYO_GRADE TOKYO_WIND TOKYO_PRES TOKYO_R50_DIR TOKYO_R50_LONG TOKYO_R50_SHORT TOKYO_R30_DIR TOKYO_R30_LONG TOKYO_R30_SHORT TOKYO_LAND CMA_LAT CMA_LON CMA_CAT CMA_WIND CMA_PRES HKO_LAT HKO_LON HKO_CAT HKO_WIND HKO_PRES NEWDELHI_LAT NEWDELHI_LON NEWDELHI_GRADE NEWDELHI_WIND NEWDELHI_PRES NEWDELHI_CI NEWDELHI_DP NEWDELHI_POCI REUNION_LAT REUNION_LON REUNION_TYPE REUNION_WIND REUNION_PRES REUNION_TNUM REUNION_CI REUNION_RMW REUNION_R34_NE REUNION_R34_SE REUNION_R34_SW REUNION_R34_NW REUNION_R50_NE REUNION_R50_SE REUNION_R50_SW REUNION_R50_NW REUNION_R64_NE REUNION_R64_SE REUNION_R64_SW REUNION_R64_NW BOM_LAT BOM_LON BOM_TYPE BOM_WIND BOM_PRES BOM_TNUM BOM_CI BOM_RMW BOM_R34_NE BOM_R34_SE BOM_R34_SW BOM_R34_NW BOM_R50_NE BOM_R50_SE BOM_R50_SW BOM_R50_NW BOM_R64_NE BOM_R64_SE BOM_R64_SW BOM_R64_NW BOM_ROCI BOM_POCI BOM_EYE BOM_POS_METHOD BOM_PRES_METHOD NADI_LAT NADI_LON NADI_CAT NADI_WIND NADI_PRES WELLINGTON_LAT WELLINGTON_LON WELLINGTON_WIND WELLINGTON_PRES DS824_LAT DS824_LON DS824_STAGE DS824_WIND DS824_PRES TD9636_LAT TD9636_LON TD9636_STAGE TD9636_WIND TD9636_PRES TD9635_LAT TD9635_LON TD9635_WIND TD9635_PRES TD9635_ROCI NEUMANN_LAT NEUMANN_LON NEUMANN_CLASS NEUMANN_WIND NEUMANN_PRES MLC_LAT MLC_LON MLC_CLASS MLC_WIND MLC_PRES USA_GUST BOM_GUST BOM_GUST_PER REUNION_GUST REUNION_GUST_PER USA_SEAHGT USA_SEARAD_NE USA_SEARAD_SE USA_SEARAD_SW USA_SEARAD_NW STORM_SPEED STORM_DIR
1946091S15155 1946 25 SP EA NOT_NAMED 1946-03-31 23:00:00 NR -14.9500 154.700 1004 bom main 648 649 ______O___O___ -1 -15.0000 155.000 1004 -14.9000 154.400 7 12 238
1946091S15155 1946 25 SP EA NOT_NAMED 1946-04-01 00:00:00 TS -15.0497 154.529 main 642 642 O_____P__OP___ jtwc_sh SH201946 -15.0000 154.300 -1 -15.1362 154.939 -15.0000 154.300 TC -15.0128 154.348 7 9 217
1946091S15155 1946 25 SP EA NOT_NAMED 1946-04-01 03:00:00 TS -15.4099 154.340 main 664 664 P_____P__PP___ SH201946 -15.3525 154.138 -1 -15.5435 154.754 -15.3525 154.138 TC -15.3530 154.194 7 8 205
1946091S15155 1946 25 SP EA NOT_NAMED 1946-04-01 06:00:00 TS -15.7701 154.175 main 694 688 O_____P__OP___ jtwc_sh SH201946 -15.7000 154.000 -1 -15.9465 154.570 -15.7000 154.000 TC -15.6988 154.043 7 8 203
1946091S15155 1946 25 SP EA NOT_NAMED 1946-04-01 09:00:00 TS -16.1205 154.021 main 711 700 P_____P__PP___ SH201946 -16.0425 153.900 -1 -16.3423 154.389 -16.0425 153.900 TC -16.0548 153.895 7 8 201
1946091S15155 1946 25 SP EA NOT_NAMED 1946-04-01 11:00:00 TS -16.3639 153.935 main 692 685 P_____P__PO___ SH201946 -16.2776 153.836 -1 -16.6005 154.269 -16.2776 153.836 TC -16.3000 153.800 7 8 198
1946091S15155 1946 25 SP EA NOT_NAMED 1946-04-01 12:00:00 TS -16.4882 153.891 main 685 641 O_____P__OP___ jtwc_sh SH201946 -16.4000 153.800 -1 -16.7275 154.210 -16.4000 153.800 TC -16.4253 153.754 7 8 200
1946091S15155 1946 25 SP EA NOT_NAMED 1946-04-01 15:00:00 TS -16.8769 153.739 main 641 612 P_____P__PP___ SH201946 -16.8000 153.650 -1 -17.0992 154.035 -16.8000 153.650 TC -16.8083 153.620 7 8 200
1946091S15155 1946 25 SP EA NOT_NAMED 1946-04-01 18:00:00 TS -17.2616 153.590 main 606 579 O_____P__OP___ jtwc_sh SH201946 -17.2000 153.500 -1 -17.4541 153.866 -17.2000 153.500 TC -17.1922 153.494 7 8 199
1946091S15155 1946 25 SP EA NOT_NAMED 1946-04-01 21:00:00 TS -17.6209 153.466 main 579 558 P_____P__PP___ SH201946 -17.5650 153.392 -1 -17.7891 153.704 -17.5650 153.392 TC -17.5645 153.375 7 7 198
1946091S15155 1946 25 SP EA NOT_NAMED 1946-04-01 23:00:00 TS -17.8458 153.390 999 bom main 558 552 P_____O__PO___ SH201946 -17.7917 153.331 -1 -18.0000 153.600 999 -17.7917 153.331 TC -17.8000 153.300 7 7 196
1946091S15155 1946 25 SP EA NOT_NAMED 1946-04-02 00:00:00 TS -17.9609 153.367 main 547 522 O_____P__OP___ jtwc_sh SH201946 -17.9000 153.300 -1 -18.1014 153.549 -17.9000 153.300 TC -17.9076 153.262 7 7 195
1946091S15155 1946 25 SP EA NOT_NAMED 1946-04-02 03:00:00 TS -18.2740 153.273 main 522 498 P_____P__PP___ SH201946 -18.2075 153.200 -1 -18.3926 153.405 -18.2075 153.200 TC -18.2128 153.153 7 6 196
1946091S15155 1946 25 SP EA NOT_NAMED 1946-04-02 06:00:00 TS -18.5765 153.186 main 498 464 O_____P__OP___ jtwc_sh SH201946 -18.5000 153.100 -1 -18.6719 153.275 -18.5000 153.100 TC -18.5039 153.052 7 6 194
1946091S15155 1946 25 SP EA NOT_NAMED 1946-04-02 09:00:00 TS -18.8811 153.107 main 464 445 P_____P__PP___ SH201946 -18.7925 153.000 -1 -18.9490 153.163 -18.7925 153.000 TC -18.7964 152.958 7 6 194
1946091S15155 1946 25 SP EA NOT_NAMED 1946-04-02 11:00:00 TS -19.0835 153.048 main 439 430 P_____P__PO___ SH201946 -18.9943 152.933 -1 -19.1373 153.100 -18.9943 152.933 TC -19.0000 152.900 7 6 194
1946091S15155 1946 25 SP EA NOT_NAMED 1946-04-02 12:00:00 TS -19.1861 153.019 main 430 396 O_____P__OP___ jtwc_sh SH201946 -19.1000 152.900 -1 -19.2336 153.073 -19.1000 152.900 TC -19.0964 152.868 7 7 195
1946091S15155 1946 25 SP EA NOT_NAMED 1946-04-02 15:00:00 TS -19.5044 152.932 main 396 369 P_____P__PP___ SH201946 -19.4350 152.793 -1 -19.5356 153.010 -19.4350 152.793 TC -19.3912 152.776 7 7 192
1946091S15155 1946 25 SP EA NOT_NAMED 1946-04-02 18:00:00 TS -19.8462 152.860 main 369 328 O_____P__OP___ jtwc_sh SH201946 -19.8000 152.700 -1 -19.8646 152.976 -19.8000 152.700 TC -19.7159 152.695 7 7 189
1946091S15155 1946 25 SP EA NOT_NAMED 1946-04-02 21:00:00 TS -20.2059 152.811 main 328 303 P_____P__PP___ SH201946 -20.1625 152.642 -1 -20.2307 152.978 -20.1625 152.642 TC -20.0987 152.630 7 8 186
1946091S15155 1946 25 SP EA NOT_NAMED 1946-04-02 23:00:00 TS -20.4748 152.790 998 bom main 303 296 P_____O__PO___ SH201946 -20.4412 152.614 -1 -20.5000 153.000 998 4 -20.4412 152.614 TC -20.4000 152.600 7 8 184
1946091S15155 1946 25 SP EA NOT_NAMED 1946-04-03 00:00:00 TS -20.6254 152.775 main 296 259 O_____P__OP___ jtwc_sh SH201946 -20.6000 152.600 -1 -20.6481 153.003 -20.6000 152.600 TC -20.5788 152.574 7 11 182
1946091S15155 1946 25 SP EA NOT_NAMED 1946-04-03 03:00:00 TS -21.1776 152.776 main 252 224 P_____P__PP___ SH201946 -21.1625 152.535 -1 -21.1215 153.031 -21.1625 152.535 TC -21.1787 152.507 7 12 0
1946091S15155 1946 25 SP EA NOT_NAMED 1946-04-03 06:00:00 TS -21.7785 152.803 main 220 206 O_____P__OP___ jtwc_sh SH201946 -21.8000 152.500 -1 -21.6338 153.094 -21.8000 152.500 TC -21.8330 152.479 7 12 176
1946091S15155 1946 25 SP EA NOT_NAMED 1946-04-03 09:00:00 TS -22.4033 152.868 main 216 183 P_____P__PP___ SH201946 -22.4799 152.505 -1 -22.1795 153.196 -22.4799 152.505 TC -22.4885 152.519 7 13 173
1946091S15155 1946 25 SP EA NOT_NAMED 1946-04-03 11:00:00 TS -22.8083 152.946 main 183 173 P_____P__PO___ SH201946 -22.9092 152.555 -1 -22.5591 153.287 -22.9092 152.555 TC -22.9000 152.600 7 12 169
1946091S15155 1946 25 SP EA NOT_NAMED 1946-04-03 12:00:00 TS -22.9946 152.994 main 173 145 O_____P__OP___ jtwc_sh SH201946 -23.1000 152.600 -1 -22.7529 153.340 -23.1000 152.600 TC -23.0682 152.642 7 11 163
1946091S15155 1946 25 SP EA NOT_NAMED 1946-04-03 15:00:00 TS -23.4856 153.178 main 145 101 P_____P__PP___ SH201946 -23.5148 152.783 -1 -23.3483 153.531 -23.5148 152.783 TC -23.5356 152.831 7 11 157
1946091S15155 1946 25 SP EA NOT_NAMED 1946-04-03 18:00:00 TS -23.9637 153.448 main 89 52 O_____P__OP___ jtwc_sh SH201946 -23.9000 153.100 -1 -23.9599 153.772 -23.9000 153.100 TC -23.9820 153.126 7 11 152
1946091S15155 1946 25 SP EA NOT_NAMED 1946-04-03 21:00:00 TS -24.4889 153.769 main 60 55 P_____P__PP___ SH201946 -24.4047 153.526 -1 -24.5821 154.069 -24.4047 153.526 TC -24.4519 153.544 7 13 149
1946091S15155 1946 25 SP EA NOT_NAMED 1946-04-03 23:00:00 TS -24.8643 154.045 999 bom main 61 61 P_____O__PO___ SH201946 -24.7915 153.892 -1 -25.0000 154.300 999 -24.7915 153.892 TC -24.8000 153.900 7 14 146
1946091S15155 1946 25 SP EA NOT_NAMED 1946-04-04 00:00:00 TS -25.0606 154.199 main 81 81 O_____P__OP___ jtwc_sh SH201946 -25.0000 154.100 -1 -25.2092 154.426 -25.0000 154.100 TC -24.9984 154.095 7 16 141
1946091S15155 1946 25 SP EA NOT_NAMED 1946-04-04 03:00:00 TS -25.7111 154.802 main 160 160 P_____P__PP___ SH201946 -25.6848 154.790 -1 -25.8374 154.843 -25.6848 154.790 TC -25.6375 154.784 7 18 138
1946091S15155 1946 25 SP EA NOT_NAMED 1946-04-04 06:00:00 TS -26.3971 155.527 main 238 238 O_____P__OP___ jtwc_sh SH201946 -26.4000 155.600 -1 -26.4658 155.315 -26.4000 155.600 TC -26.3226 155.594 7 19 135
1946091S15155 1946 25 SP EA NOT_NAMED 1946-04-04 09:00:00 TS -27.0555 156.315 main 292 292 P_____P__PP___ SH201946 -27.0497 156.471 -1 -27.0938 155.836 -27.0497 156.471 TC -27.0290 156.483 7 20 132
1946091S15155 1946 25 SP EA NOT_NAMED 1946-04-04 11:00:00 TS -27.4930 156.870 main 333 333 P_____P__PO___ SH201946 -27.4800 157.087 -1 -27.5120 156.206 -27.4800 157.087 TC -27.5000 157.100 7 19 133
1946091S15155 1946 25 SP EA NOT_NAMED 1946-04-04 12:00:00 TS -27.7154 157.117 main 347 347 O_____P__OP___ jtwc_sh SH201946 -27.7000 157.400 -1 -27.7208 156.397 -27.7000 157.400 TC -27.7332 157.411 7 19 135
1946091S15155 1946 25 SP EA NOT_NAMED 1946-04-04 15:00:00 TS -28.3857 157.896 main 420 420 P_____P__PP___ SH201946 -28.3887 158.345 -1 -28.3461 156.994 -28.3887 158.345 TC -28.4222 158.348 7 19 134
1946091S15155 1946 25 SP EA NOT_NAMED 1946-04-04 18:00:00 TS -29.0500 158.668 main 495 495 O_____P__OP___ jtwc_sh SH201946 -29.1000 159.300 -1 -28.9690 157.618 -29.1000 159.300 TC -29.0977 159.296 7 18 137
1946091S15155 1946 25 SP EA NOT_NAMED 1946-04-04 21:00:00 NR -29.6755 159.259 main 559 559 ______P___P___ SH201946 -1 -29.5888 158.263 TC -29.7622 160.254 7 17 137
1946091S15155 1946 25 SP EA NOT_NAMED 1946-04-04 23:00:00 NR -30.1000 159.800 998 bom main 613 ______O___O___ SH201946 -1 -30.0000 158.700 998 TC -30.2000 160.900 7 19 132

Digital Typhoon Data and Search

About IBTrACS Database

This database is a web-friendly format of International Best Track Archive for Climate Stewardship (IBTrACS), a global best track data archive curated by NOAA dating back to 1842.

Updated: 2021-10-19